Menu Close Menu
Station Historical Data
Daily Summary for April 15, 2017 Units:  Both    English   Metric
« Previous Day
Next Day »
Daily Weekly Monthly Yearly Custom
  High: Low: Average:
Temperature: 82.1 °F /  27.8 °C 60.0 °F /  15.6 °C 69.9 °F /  21.1 °C
Dew Point: 59.8 °F /  15.4 °C 49.6 °F /  9.8 °C 53.8 °F /  12.1 °C
Humidity: 88% 34% 60%
Wind Speed: 1.0mph /  1.6km/h - 0.1mph /  0.2km/h
Wind Gust: 6.0mph /  9.7km/h - -
Wind- - NW
Pressure: 30.36 in /  1028 hPa 30.22 in /  1023.2 hPa -
Precipitation: 0.00 in /  0 mm    
Historical Graphs
 
 
Tabular Data for April 15, 2017
Time Temperature Dew Point Pressure Wind Wind Speed Wind Gust Humidity Rainfall Rate (Hourly) solar Conditions
00:00 63.3 °F /  17.4 °C 54.9 °F /  12.7 °C 30.26in /  1024.6hPa Calm     74% 0.00in /  0mm WeatherDisplay:10.37 W/m2 CLR
00:15 62.9 °F /  17.2 °C 54.9 °F /  12.7 °C 30.26in /  1024.6hPa Calm     75% 0.00in /  0mm WeatherDisplay:10.37 W/m2 CLR
00:30 62.8 °F /  17.1 °C 55.1 °F /  12.8 °C 30.26in /  1024.6hPa Calm     76% 0.00in /  0mm WeatherDisplay:10.37 W/m2 CLR
00:45 62.5 °F /  16.9 °C 55.2 °F /  12.9 °C 30.26in /  1024.6hPa Calm     77% 0.00in /  0mm WeatherDisplay:10.37 W/m2 CLR
01:00 62.2 °F /  16.8 °C 54.9 °F /  12.7 °C 30.26in /  1024.6hPa Calm     77% 0.00in /  0mm WeatherDisplay:10.37 W/m2 CLR
01:15 61.9 °F /  16.6 °C 55.0 °F /  12.8 °C 30.26in /  1024.6hPa Calm     78% 0.00in /  0mm WeatherDisplay:10.37 W/m2 CLR
01:30 61.6 °F /  16.4 °C 55.0 °F /  12.8 °C 30.26in /  1024.6hPa Calm     79% 0.00in /  0mm WeatherDisplay:10.37 W/m2 CLR
01:45 61.2 °F /  16.2 °C 54.6 °F /  12.6 °C 30.26in /  1024.6hPa Calm     79% 0.00in /  0mm WeatherDisplay:10.37 W/m2 CLR
02:00 61.0 °F /  16.1 °C 54.4 °F /  12.4 °C 30.26in /  1024.6hPa Calm     79% 0.00in /  0mm WeatherDisplay:10.37 W/m2 CLR
02:15 61.4 °F /  16.3 °C 54.5 °F /  12.5 °C 30.26in /  1024.6hPa Calm     78% 0.00in /  0mm WeatherDisplay:10.37 W/m2 CLR
02:30 61.9 °F /  16.6 °C 55.0 °F /  12.8 °C 30.26in /  1024.6hPa Calm     78% 0.00in /  0mm WeatherDisplay:10.37 W/m2 CLR
02:45 61.7 °F /  16.5 °C 55.1 °F /  12.8 °C 30.26in /  1024.6hPa Calm     79% 0.00in /  0mm WeatherDisplay:10.37 W/m2 CLR
03:00 61.9 °F /  16.6 °C 55.0 °F /  12.8 °C 30.26in /  1024.6hPa Calm     78% 0.00in /  0mm WeatherDisplay:10.37 W/m2 CLR
03:15 62.0 °F /  16.7 °C 55.1 °F /  12.8 °C 30.26in /  1024.6hPa Calm     78% 0.00in /  0mm WeatherDisplay:10.37 W/m2 CLR
03:30 61.3 °F /  16.3 °C 54.4 °F /  12.4 °C 30.27in /  1024.9hPa Calm     78% 0.00in /  0mm WeatherDisplay:10.37 W/m2 CLR
03:45 61.0 °F /  16.1 °C 54.1 °F /  12.3 °C 30.27in /  1024.9hPa Calm     78% 0.00in /  0mm WeatherDisplay:10.37 W/m2 CLR
04:00 61.0 °F /  16.1 °C 54.1 °F /  12.3 °C 30.27in /  1024.9hPa Calm     78% 0.00in /  0mm WeatherDisplay:10.37 W/m2 CLR
04:15 61.0 °F /  16.1 °C 54.1 °F /  12.3 °C 30.27in /  1024.9hPa Calm     78% 0.00in /  0mm WeatherDisplay:10.37 W/m2 CLR
04:30 61.0 °F /  16.1 °C 54.1 °F /  12.3 °C 30.27in /  1024.9hPa Calm     78% 0.00in /  0mm WeatherDisplay:10.37 W/m2 CLR
04:45 61.0 °F /  16.1 °C 54.1 °F /  12.3 °C 30.27in /  1024.9hPa Calm     78% 0.00in /  0mm WeatherDisplay:10.37 W/m2 CLR
05:00 61.0 °F /  16.1 °C 54.1 °F /  12.3 °C 30.27in /  1024.9hPa Calm     78% 0.00in /  0mm WeatherDisplay:10.37 W/m2 CLR
05:15 61.0 °F /  16.1 °C 54.1 °F /  12.3 °C 30.28in /  1025.3hPa Calm     78% 0.00in /  0mm WeatherDisplay:10.37 W/m2 CLR
05:30 61.0 °F /  16.1 °C 54.1 °F /  12.3 °C 30.28in /  1025.3hPa Calm     78% 0.00in /  0mm WeatherDisplay:10.37 W/m2 CLR
05:45 61.0 °F /  16.1 °C 54.1 °F /  12.3 °C 30.28in /  1025.3hPa Calm     78% 0.00in /  0mm WeatherDisplay:10.37 W/m2 CLR
06:00 61.0 °F /  16.1 °C 54.1 °F /  12.3 °C 30.28in /  1025.3hPa Calm     78% 0.00in /  0mm WeatherDisplay:10.37 W/m2 CLR
06:15 61.0 °F /  16.1 °C 54.1 °F /  12.3 °C 30.29in /  1025.6hPa Calm     78% 0.00in /  0mm WeatherDisplay:10.37 W/m2 CLR
06:30 61.0 °F /  16.1 °C 54.1 °F /  12.3 °C 30.29in /  1025.6hPa Calm     78% 0.00in /  0mm WeatherDisplay:10.37 W/m2 CLR
06:45 61.0 °F /  16.1 °C 54.1 °F /  12.3 °C 30.30in /  1026hPa Calm     78% 0.00in /  0mm WeatherDisplay:10.37 W/m2 CLR
07:00 61.0 °F /  16.1 °C 54.1 °F /  12.3 °C 30.30in /  1026hPa Calm     78% 0.00in /  0mm WeatherDisplay:10.37 W/m2 CLR
07:15 61.0 °F /  16.1 °C 54.1 °F /  12.3 °C 30.31in /  1026.3hPa Calm     78% 0.00in /  0mm WeatherDisplay:10.37 W/m2 CLR
07:30 61.0 °F /  16.1 °C 54.1 °F /  12.3 °C 30.32in /  1026.6hPa Calm     78% 0.00in /  0mm WeatherDisplay:10.37 W/m2 CLR
07:45 61.0 °F /  16.1 °C 54.1 °F /  12.3 °C 30.33in /  1027hPa Calm     78% 0.00in /  0mm WeatherDisplay:10.37 W/m2 CLR
08:00 61.0 °F /  16.1 °C 54.1 °F /  12.3 °C 30.33in /  1027hPa Calm     78% 0.00in /  0mm WeatherDisplay:10.37 W/m2 CLR
08:15 60.0 °F /  15.6 °C 56.4 °F /  13.6 °C 30.33in /  1027hPa Calm     88% 0.00in /  0mm WeatherDisplay:10.37 W/m2 CLR
08:30 61.3 °F /  16.3 °C 57.1 °F /  13.9 °C 30.34in /  1027.3hPa Calm     86% 0.00in /  0mm WeatherDisplay:10.37 W/m2 CLR
08:45 62.8 °F /  17.1 °C 57.9 °F /  14.4 °C 30.34in /  1027.3hPa Calm     84% 0.00in /  0mm WeatherDisplay:10.37 W/m2 CLR
09:00 64.8 °F /  18.2 °C 58.9 °F /  14.9 °C 30.34in /  1027.3hPa Calm   1.0mph /  1.6km/h 81% 0.00in /  0mm WeatherDisplay:10.37 W/m2 CLR
09:15 66.7 °F /  19.3 °C 59.3 °F /  15.2 °C 30.34in /  1027.3hPa Calm   1.0mph /  1.6km/h 77% 0.00in /  0mm WeatherDisplay:10.37 W/m2 CLR
09:30 67.6 °F /  19.8 °C 59.4 °F /  15.2 °C 30.35in /  1027.7hPa Calm   2.0mph /  3.2km/h 75% 0.00in /  0mm WeatherDisplay:10.37 W/m2 CLR
09:45 69.1 °F /  20.6 °C 59.3 °F /  15.2 °C 30.35in /  1027.7hPa Calm   2.0mph /  3.2km/h 71% 0.00in /  0mm WeatherDisplay:10.37 W/m2 CLR
10:00 71.0 °F /  21.7 °C 59.5 °F /  15.3 °C 30.35in /  1027.7hPa Calm   1.0mph /  1.6km/h 67% 0.00in /  0mm WeatherDisplay:10.37 W/m2 CLR
10:15 72.2 °F /  22.3 °C 58.9 °F /  14.9 °C 30.36in /  1028hPa WNW 1.0mph /  1.6km/h 3.0mph /  4.8km/h 63% 0.00in /  0mm WeatherDisplay:10.37 W/m2 CLR
10:30 72.2 °F /  22.3 °C 59.7 °F /  15.4 °C 30.36in /  1028hPa NW 1.0mph /  1.6km/h 3.0mph /  4.8km/h 65% 0.00in /  0mm WeatherDisplay:10.37 W/m2 CLR
10:45 72.7 °F /  22.6 °C 59.8 °F /  15.4 °C 30.36in /  1028hPa Calm   2.0mph /  3.2km/h 64% 0.00in /  0mm WeatherDisplay:10.37 W/m2 CLR
11:00 74.5 °F /  23.6 °C 58.3 °F /  14.6 °C 30.36in /  1028hPa Calm   1.0mph /  1.6km/h 57% 0.00in /  0mm WeatherDisplay:10.37 W/m2 CLR
11:15 75.2 °F /  24 °C 59.0 °F /  15 °C 30.36in /  1028hPa Calm     57% 0.00in /  0mm WeatherDisplay:10.37 W/m2 CLR
11:30 76.2 °F /  24.6 °C 58.3 °F /  14.6 °C 30.35in /  1027.7hPa Calm   2.0mph /  3.2km/h 54% 0.00in /  0mm WeatherDisplay:10.37 W/m2 CLR
11:45 76.7 °F /  24.8 °C 58.3 °F /  14.6 °C 30.35in /  1027.7hPa WNW 1.0mph /  1.6km/h 2.0mph /  3.2km/h 53% 0.00in /  0mm WeatherDisplay:10.37 W/m2 CLR
12:00 76.7 °F /  24.8 °C 57.2 °F /  14 °C 30.34in /  1027.3hPa Calm   3.0mph /  4.8km/h 51% 0.00in /  0mm WeatherDisplay:10.37 W/m2 CLR
12:15 77.9 °F /  25.5 °C 57.2 °F /  14 °C 30.33in /  1027hPa Calm   2.0mph /  3.2km/h 49% 0.00in /  0mm WeatherDisplay:10.37 W/m2 CLR
12:30 78.9 °F /  26.1 °C 55.1 °F /  12.8 °C 30.33in /  1027hPa Calm   3.0mph /  4.8km/h 44% 0.00in /  0mm WeatherDisplay:10.37 W/m2 CLR
12:45 79.7 °F /  26.5 °C 54.5 °F /  12.5 °C 30.32in /  1026.6hPa Calm   3.0mph /  4.8km/h 42% 0.00in /  0mm WeatherDisplay:10.37 W/m2 CLR
13:00 80.6 °F /  27 °C 57.3 °F /  14.1 °C 30.32in /  1026.6hPa NW 1.0mph /  1.6km/h 3.0mph /  4.8km/h 45% 0.00in /  0mm WeatherDisplay:10.37 W/m2 CLR
13:15 80.7 °F /  27.1 °C 54.8 °F /  12.7 °C 30.30in /  1026hPa Calm   5.0mph /  8km/h 41% 0.00in /  0mm WeatherDisplay:10.37 W/m2 CLR
13:30 81.2 °F /  27.3 °C 53.9 °F /  12.2 °C 30.30in /  1026hPa Calm   2.0mph /  3.2km/h 39% 0.00in /  0mm WeatherDisplay:10.37 W/m2 CLR
13:45 82.1 °F /  27.8 °C 54.0 °F /  12.2 °C 30.29in /  1025.6hPa Calm   3.0mph /  4.8km/h 38% 0.00in /  0mm WeatherDisplay:10.37 W/m2 CLR
14:00 81.6 °F /  27.6 °C 52.1 °F /  11.2 °C 30.29in /  1025.6hPa WNW 1.0mph /  1.6km/h 5.0mph /  8km/h 36% 0.00in /  0mm WeatherDisplay:10.37 W/m2 CLR
14:15 81.4 °F /  27.4 °C 51.9 °F /  11.1 °C 30.28in /  1025.3hPa Calm   5.0mph /  8km/h 36% 0.00in /  0mm WeatherDisplay:10.37 W/m2 CLR
14:30 81.5 °F /  27.5 °C 52.7 °F /  11.5 °C 30.28in /  1025.3hPa WNW 1.0mph /  1.6km/h 5.0mph /  8km/h 37% 0.00in /  0mm WeatherDisplay:10.37 W/m2 CLR
14:45 81.0 °F /  27.2 °C 50.0 °F /  10 °C 30.27in /  1024.9hPa WNW 1.0mph /  1.6km/h 5.0mph /  8km/h 34% 0.00in /  0mm WeatherDisplay:10.37 W/m2 CLR
15:00 80.1 °F /  26.7 °C 50.0 °F /  10 °C 30.27in /  1024.9hPa NW 1.0mph /  1.6km/h 5.0mph /  8km/h 35% 0.00in /  0mm WeatherDisplay:10.37 W/m2 CLR
15:15 79.9 °F /  26.6 °C 51.3 °F /  10.7 °C 30.26in /  1024.6hPa NW 1.0mph /  1.6km/h 3.0mph /  4.8km/h 37% 0.00in /  0mm WeatherDisplay:10.37 W/m2 CLR
15:30 79.1 °F /  26.2 °C 50.6 °F /  10.3 °C 30.26in /  1024.6hPa Calm   5.0mph /  8km/h 37% 0.00in /  0mm WeatherDisplay:10.37 W/m2 CLR
15:45 79.3 °F /  26.3 °C 52.2 °F /  11.2 °C 30.25in /  1024.3hPa WNW 1.0mph /  1.6km/h 5.0mph /  8km/h 39% 0.00in /  0mm WeatherDisplay:10.37 W/m2 CLR
16:00 78.8 °F /  26 °C 51.7 °F /  10.9 °C 30.24in /  1023.9hPa Calm   6.0mph /  9.7km/h 39% 0.00in /  0mm WeatherDisplay:10.37 W/m2 CLR
16:15 79.0 °F /  26.1 °C 51.9 °F /  11.1 °C 30.24in /  1023.9hPa NW 1.0mph /  1.6km/h 3.0mph /  4.8km/h 39% 0.00in /  0mm WeatherDisplay:10.37 W/m2 CLR
16:30 79.7 °F /  26.5 °C 51.1 °F /  10.6 °C 30.23in /  1023.6hPa Calm   3.0mph /  4.8km/h 37% 0.00in /  0mm WeatherDisplay:10.37 W/m2 CLR
16:45 79.8 °F /  26.6 °C 51.2 °F /  10.7 °C 30.23in /  1023.6hPa Calm   5.0mph /  8km/h 37% 0.00in /  0mm WeatherDisplay:10.37 W/m2 CLR
17:00 78.7 °F /  25.9 °C 50.3 °F /  10.2 °C 30.23in /  1023.6hPa NW 1.0mph /  1.6km/h 3.0mph /  4.8km/h 37% 0.00in /  0mm WeatherDisplay:10.37 W/m2 CLR
17:15 78.4 °F /  25.8 °C 50.7 °F /  10.4 °C 30.22in /  1023.2hPa North 1.0mph /  1.6km/h 3.0mph /  4.8km/h 38% 0.00in /  0mm WeatherDisplay:10.37 W/m2 CLR
17:30 78.7 °F /  25.9 °C 51.0 °F /  10.6 °C 30.22in /  1023.2hPa Calm   3.0mph /  4.8km/h 38% 0.00in /  0mm WeatherDisplay:10.37 W/m2 CLR
17:45 78.7 °F /  25.9 °C 50.9 °F /  10.5 °C 30.22in /  1023.2hPa Calm   3.0mph /  4.8km/h 38% 0.00in /  0mm WeatherDisplay:10.37 W/m2 CLR
18:00 78.0 °F /  25.6 °C 49.6 °F /  9.8 °C 30.22in /  1023.2hPa NNW 1.0mph /  1.6km/h 3.0mph /  4.8km/h 37% 0.00in /  0mm WeatherDisplay:10.37 W/m2 CLR
18:15 77.7 °F /  25.4 °C 51.5 °F /  10.8 °C 30.22in /  1023.2hPa Calm   3.0mph /  4.8km/h 40% 0.00in /  0mm WeatherDisplay:10.37 W/m2 CLR
18:30 77.5 °F /  25.3 °C 49.9 °F /  9.9 °C 30.22in /  1023.2hPa Calm   2.0mph /  3.2km/h 38% 0.00in /  0mm WeatherDisplay:10.37 W/m2 CLR
18:45 77.1 °F /  25.1 °C 50.9 °F /  10.5 °C 30.23in /  1023.6hPa Calm   3.0mph /  4.8km/h 40% 0.00in /  0mm WeatherDisplay:10.37 W/m2 CLR
19:00 76.6 °F /  24.8 °C 51.1 °F /  10.6 °C 30.23in /  1023.6hPa Calm   1.0mph /  1.6km/h 41% 0.00in /  0mm WeatherDisplay:10.37 W/m2 CLR
19:15 76.0 °F /  24.4 °C 50.6 °F /  10.3 °C 30.23in /  1023.6hPa Calm   1.0mph /  1.6km/h 41% 0.00in /  0mm WeatherDisplay:10.37 W/m2 CLR
19:30 75.6 °F /  24.2 °C 50.9 °F /  10.5 °C 30.23in /  1023.6hPa Calm     42% 0.00in /  0mm WeatherDisplay:10.37 W/m2 CLR
19:45 75.0 °F /  23.9 °C 50.4 °F /  10.2 °C 30.23in /  1023.6hPa Calm   1.0mph /  1.6km/h 42% 0.00in /  0mm WeatherDisplay:10.37 W/m2 CLR
20:00 74.6 °F /  23.7 °C 50.7 °F /  10.4 °C 30.23in /  1023.6hPa Calm   1.0mph /  1.6km/h 43% 0.00in /  0mm WeatherDisplay:10.37 W/m2 CLR
20:15 73.7 °F /  23.2 °C 50.4 °F /  10.2 °C 30.23in /  1023.6hPa Calm     44% 0.00in /  0mm WeatherDisplay:10.37 W/m2 CLR
20:30 72.7 °F /  22.6 °C 50.7 °F /  10.4 °C 30.23in /  1023.6hPa Calm     46% 0.00in /  0mm WeatherDisplay:10.37 W/m2 CLR
20:45 71.8 °F /  22.1 °C 51.0 °F /  10.6 °C 30.23in /  1023.6hPa Calm     48% 0.00in /  0mm WeatherDisplay:10.37 W/m2 CLR
21:00 71.3 °F /  21.8 °C 50.6 °F /  10.3 °C 30.24in /  1023.9hPa Calm     48% 0.00in /  0mm WeatherDisplay:10.37 W/m2 CLR
21:15 70.8 °F /  21.6 °C 50.7 °F /  10.4 °C 30.24in /  1023.9hPa Calm     49% 0.00in /  0mm WeatherDisplay:10.37 W/m2 CLR
21:30 70.3 °F /  21.3 °C 50.8 °F /  10.4 °C 30.24in /  1023.9hPa Calm     50% 0.00in /  0mm WeatherDisplay:10.37 W/m2 CLR
21:45 69.9 °F /  21.1 °C 50.9 °F /  10.5 °C 30.25in /  1024.3hPa Calm     51% 0.00in /  0mm WeatherDisplay:10.37 W/m2 CLR
22:00 69.4 °F /  20.8 °C 51.5 °F /  10.8 °C 30.25in /  1024.3hPa Calm     53% 0.00in /  0mm WeatherDisplay:10.37 W/m2 CLR
22:15 68.7 °F /  20.4 °C 51.9 °F /  11.1 °C 30.25in /  1024.3hPa Calm     55% 0.00in /  0mm WeatherDisplay:10.37 W/m2 CLR
22:30 67.9 °F /  19.9 °C 51.1 °F /  10.6 °C 30.25in /  1024.3hPa Calm     55% 0.00in /  0mm WeatherDisplay:10.37 W/m2 CLR
22:45 67.3 °F /  19.6 °C 52.0 °F /  11.1 °C 30.25in /  1024.3hPa Calm     58% 0.00in /  0mm WeatherDisplay:10.37 W/m2 CLR
23:00 66.6 °F /  19.2 °C 52.7 °F /  11.5 °C 30.25in /  1024.3hPa Calm     61% 0.00in /  0mm WeatherDisplay:10.37 W/m2 CLR
23:15 66.0 °F /  18.9 °C 51.7 °F /  10.9 °C 30.25in /  1024.3hPa Calm     60% 0.00in /  0mm WeatherDisplay:10.37 W/m2 CLR
23:30 65.5 °F /  18.6 °C 53.0 °F /  11.7 °C 30.25in /  1024.3hPa Calm     64% 0.00in /  0mm WeatherDisplay:10.37 W/m2 CLR
23:45 64.8 °F /  18.2 °C 53.1 °F /  11.7 °C 30.25in /  1024.3hPa Calm     66% 0.00in /  0mm WeatherDisplay:10.37 W/m2 CLR
Piedmont Bend
Compliments of Weather Underground - 4 mb